Barbados Meteorological Services
Auto gathered TAF list
Powered by Apparatus software
For Flight BW449
Contact Number 1-(246)-535-0021/2/3/4/5/6
WEB: http://www.barbadosweather.org

**********************************************

2019/07/20 18:36
TAF TVSA 201700Z 2018/2118 07012KT 9999 SCT018 PROB30
TEMPO 2100/2109 SHRA BKN015


**********************************************
2019/07/20 18:27
TAF TTPP 201600Z 2018/2118 10013KT 9999 SCT025
BECMG 2023/2101 10005KT FEW016
BECMG 2111/2113 10015KT SCT022


**********************************************
2019/07/20 18:27
TAF TTCP 201600Z 2018/2118 10013KT 9999 FEW022
BECMG 2023/2101 10005KT FEW016
BECMG 2111/2113 10015KT FEW020


**********************************************
2019/07/20 18:54
TAF TNCM 201749Z 2018/2118 10014KT P6SM FEW020


**********************************************
2019/07/20 18:06
TAF TLPL 201700Z 2018/2118 09018KT 9999 SCT026 PROB40
TEMPO 2103/2118 SHRA


**********************************************
2019/07/20 18:06
TAF TAF TLPC 201700Z 2018/2118 10008KT 9999 SCT026 PROB40
TEMPO 2103/2118 SHRA


**********************************************
2019/07/20 18:54
TAF TJSJ 201749Z 2018/2118 09013KT P6SM FEW025 SCT050
FM202300 09007KT P6SM FEW025 SCT060 SCT100
FM211500 06014G20KT P6SM SCT025


**********************************************
2019/07/20 18:36
TAF TAF COR TGPY 201600Z 2018/2118 09014KT 999 SCT019
BECMG 2100/2102 06008KT SCT019 SCT040 PROB30
TEMPO 2105/2111 5000 SHRA BKN017
BECMG 2112/2114 10012KT


**********************************************
2019/07/20 18:42
TAF TFFR 201700Z 2018/2118 12010KT 9999 SCT025
BECMG 2022/2024 VRB03KT PROB40
TEMPO 2101/2111 3000 SHRA SCT018TCU
BECMG 2111/2113 11010KT


**********************************************
2019/07/20 18:37
TAF TFFF 201700Z 2018/2118 11013KT 9999 SCT030 PROB40
TEMPO 2101/2110 3000 SHRA SCT018TCU


**********************************************
2019/07/20 18:36
TAF TDPD 201700Z 2018/2118 10010KT 9999 SCT018 PROB30
TEMPO 2100/2109 SHRA BKN015


**********************************************
2019/07/20 18:36
TAF TBPB 201700Z 2018/2118 09015KT 9999 SCT020 PROB30
TEMPO 2100/2109 SHRA BKN015


**********************************************
2019/07/20 18:53
TAF TAPA 201700Z 2018/2118 08010KT 9999 SCT020= TAF TRPG 201700Z 2018/2118 12012KT 9999 SCT020


**********************************************
2019/07/20 19:55
TAF
AMD SYCJ 171855Z 1719/1818 06010G20KT 3000 TSRA RA FEW010CB SCT016 OVC030
BECMG 1722/1800 05004KT 9999 SCT014
BECMG 1810/1812 07012KT 9999 BKN018 SCT037


**********************************************
2019/07/20 18:03
TAF TAF SVMI 200400Z 2418/2518 FTVN20 SVMI 200400 TAF SVMI 200400Z 2100/2200 09003KT 9999 BKN016 TX34/17Z TN24/08Z
BECMG 1806/1808 05008KT 9000 -DZ BKN013


**********************************************
2019/07/20 19:59
TAF
AMD SOCA 201949Z 2019/2118 11008KT 9999 SCT030
FM202200 VRB02KT 9999 SCT020
TEMPO 2100/2118 2000 SHRA SCT015TCU PROB30
TEMPO 2115/2118 0800 TSRA BKN005 SCT015CB


**********************************************
2019/07/20 18:30
TAF TAF SMJP 201600Z 2018/2118 09008KT 9999 SCT030 TX31/2116Z TN22/2109Z
TEMPO 2018/2022 VRB08G18KT 4000 TSRA FEW015CB SCT018 PROB40 2109/2111 00000KT 3000 BR SCT002
FM211200 12006KT 9999 SCT015


**********************************************
2019/07/20 18:32
TAF MYNN 201700Z 2018/2118 12012KT 9999 SHRA SCT018CB
BECMG 2100/2002 10010KT 9999 SCT020 SCT200


**********************************************
2019/07/20 18:15
TAF MKJP 201715Z 2018/2118 14025KT 9999 FEW020 FEW022CB
BECMG 2101/2103 13015KT
BECMG 2106/2108 35007KT
BECMG 2114/2116 14025KT


**********************************************